Time;durP1;ratioP1;P1;durP2;ratioP2;P2;SDS_P1;SDS_P2;PMS_P1;PMS_P2;Temp;Humidity;BMP_temperature;BMP_pressure;BME280_temperature;BME280_humidity;BME280_pressure;Samples;Min_cycle;Max_cycle;Signal;HPM_P1;HPM_P2
2021/09/28 00:00:44;;;;;;;24.23;19.30;;;17.60;99.90;;;;;;5034325;28;20472;-79
2021/09/28 00:03:11;;;;;;;20.47;18.40;;;17.60;99.90;;;;;;5034565;28;21007;-80
2021/09/28 00:05:39;;;;;;;22.37;18.47;;;17.50;99.90;;;;;;5034223;28;20477;-79
2021/09/28 00:08:06;;;;;;;20.00;18.00;;;17.50;99.90;;;;;;5034798;28;20540;-79
2021/09/28 00:10:35;;;;;;;21.27;19.07;;;17.50;99.90;;;;;;5032310;28;20450;-79
2021/09/28 00:13:02;;;;;;;20.77;18.40;;;17.50;99.90;;;;;;5034320;28;20539;-79
2021/09/28 00:15:28;;;;;;;21.30;19.30;;;17.40;99.90;;;;;;5034053;28;20481;-79
2021/09/28 00:17:55;;;;;;;21.20;19.10;;;17.40;99.90;;;;;;5033968;28;20488;-79
2021/09/28 00:20:23;;;;;;;18.80;16.90;;;17.40;99.90;;;;;;5034073;28;20473;-79
2021/09/28 00:22:53;;;;;;;18.60;16.80;;;17.40;99.90;;;;;;5020566;28;20445;-78
2021/09/28 00:25:21;;;;;;;20.57;18.47;;;17.40;99.90;;;;;;5034028;28;20507;-79
2021/09/28 00:27:47;;;;;;;20.00;18.00;;;17.30;99.90;;;;;;5033886;28;20480;-78
2021/09/28 00:30:14;;;;;;;18.63;17.00;;;17.30;99.90;;;;;;5032730;28;20449;-79
2021/09/28 00:32:42;;;;;;;21.17;19.10;;;17.20;99.90;;;;;;5032599;28;20563;-79
2021/09/28 00:35:09;;;;;;;21.70;19.37;;;17.30;99.90;;;;;;5032013;28;20859;-79
2021/09/28 00:37:35;;;;;;;19.07;17.27;;;17.20;99.90;;;;;;5033852;28;20990;-79
2021/09/28 00:40:04;;;;;;;20.10;18.20;;;17.20;99.90;;;;;;5031130;28;20533;-78
2021/09/28 00:42:31;;;;;;;20.77;18.33;;;17.20;99.90;;;;;;5033893;28;20513;-78
2021/09/28 00:44:57;;;;;;;19.23;17.40;;;17.20;99.90;;;;;;5033847;28;20531;-78
2021/09/28 00:47:24;;;;;;;21.30;19.20;;;17.20;99.90;;;;;;5031536;28;20536;-81
2021/09/28 00:49:50;;;;;;;19.30;17.60;;;17.20;99.90;;;;;;5027303;28;21005;-77
2021/09/28 00:52:19;;;;;;;19.77;17.87;;;17.30;99.90;;;;;;5023709;28;20474;-77
2021/09/28 00:54:47;;;;;;;21.40;19.23;;;17.30;99.90;;;;;;5022357;28;20444;-78
2021/09/28 00:57:15;;;;;;;24.07;19.03;;;17.30;99.90;;;;;;5023179;28;20492;-77
2021/09/28 00:59:42;;;;;;;20.57;18.40;;;17.30;99.90;;;;;;5015415;28;20878;-78
2021/09/28 01:02:10;;;;;;;18.90;17.10;;;17.40;99.90;;;;;;5019646;28;20539;-79
2021/09/28 01:04:37;;;;;;;22.50;20.20;;;17.40;99.90;;;;;;5025368;28;20552;-79
2021/09/28 01:07:05;;;;;;;19.70;17.80;;;17.40;99.90;;;;;;5020526;28;20976;-80
2021/09/28 01:09:32;;;;;;;21.40;19.40;;;17.50;99.90;;;;;;5021234;28;20513;-79
2021/09/28 01:11:59;;;;;;;20.93;18.83;;;17.50;99.90;;;;;;5019509;28;20465;-80
2021/09/28 01:14:27;;;;;;;19.90;17.90;;;17.60;99.90;;;;;;5019908;28;20537;-80
2021/09/28 01:16:53;;;;;;;20.53;18.53;;;17.60;99.90;;;;;;5024977;28;20532;-79
2021/09/28 01:19:21;;;;;;;22.33;20.13;;;17.60;99.90;;;;;;5021639;28;20477;-79
2021/09/28 01:21:50;;;;;;;21.73;19.63;;;17.60;99.90;;;;;;5026213;28;20512;-79
2021/09/28 01:24:17;;;;;;;21.37;19.27;;;17.70;99.90;;;;;;5014126;28;20545;-79
2021/09/28 01:26:43;;;;;;;21.00;18.80;;;17.70;99.90;;;;;;5020677;28;20493;-79
2021/09/28 01:29:10;;;;;;;23.83;21.40;;;17.70;99.90;;;;;;5019811;28;21007;-80
2021/09/28 01:31:38;;;;;;;22.83;20.43;;;17.80;99.90;;;;;;5020972;28;20861;-80
2021/09/28 01:34:05;;;;;;;21.27;19.13;;;17.70;99.90;;;;;;5017596;28;20454;-80
2021/09/28 01:36:31;;;;;;;20.53;18.50;;;17.70;99.90;;;;;;5019128;28;20541;-79
2021/09/28 01:38:59;;;;;;;21.40;19.20;;;17.70;99.90;;;;;;5021826;28;20479;-79
2021/09/28 01:41:26;;;;;;;22.10;19.80;;;17.70;99.90;;;;;;5022706;28;21048;-79
2021/09/28 01:44:07;;;;;;;22.00;19.70;;;17.70;99.90;;;;;;5027870;28;20545;-79
2021/09/28 01:46:36;;;;;;;23.90;20.70;;;17.70;99.90;;;;;;5027556;28;20458;-79
2021/09/28 01:49:04;;;;;;;21.37;19.37;;;17.70;99.90;;;;;;5022071;28;20965;-80
2021/09/28 01:51:30;;;;;;;21.57;19.43;;;17.60;99.90;;;;;;5020053;28;20481;-80
2021/09/28 01:53:57;;;;;;;28.83;19.53;;;17.70;99.90;;;;;;5018612;28;20457;-80
2021/09/28 01:56:26;;;;;;;22.07;19.90;;;17.70;99.90;;;;;;5027800;28;20487;-80
2021/09/28 01:58:53;;;;;;;22.50;19.90;;;17.60;99.90;;;;;;5022501;28;20940;-80
2021/09/28 02:01:20;;;;;;;23.33;20.47;;;17.60;99.90;;;;;;5023860;28;20567;-79
2021/09/28 02:03:46;;;;;;;22.50;20.10;;;17.60;99.90;;;;;;5022314;28;21003;-79
2021/09/28 02:06:14;;;;;;;19.93;17.90;;;17.70;99.90;;;;;;5018146;28;21032;-80
2021/09/28 02:08:40;;;;;;;22.47;20.07;;;17.70;99.90;;;;;;5027618;28;20976;-81
2021/09/28 02:11:07;;;;;;;23.87;21.43;;;17.70;99.90;;;;;;5019236;28;21048;-80
2021/09/28 02:13:35;;;;;;;21.03;18.83;;;17.60;99.90;;;;;;5023354;28;20545;-80
2021/09/28 02:16:01;;;;;;;22.43;20.03;;;17.70;99.90;;;;;;5019160;28;20533;-79
2021/09/28 02:18:28;;;;;;;29.97;21.20;;;17.70;99.90;;;;;;5013099;28;20537;-79
2021/09/28 02:20:55;;;;;;;20.77;18.67;;;17.70;99.90;;;;;;5012784;28;20550;-79
2021/09/28 02:23:21;;;;;;;23.07;20.53;;;17.70;99.90;;;;;;5013184;28;20474;-80
2021/09/28 02:25:48;;;;;;;20.87;18.87;;;17.70;99.90;;;;;;5013133;28;20545;-80
2021/09/28 02:28:14;;;;;;;23.93;18.90;;;17.70;99.90;;;;;;5013125;28;20545;-79
2021/09/28 02:30:42;;;;;;;21.83;19.60;;;17.70;99.90;;;;;;5012835;28;20545;-79
2021/09/28 02:33:09;;;;;;;20.87;18.50;;;17.70;99.90;;;;;;5012738;28;20450;-79
2021/09/28 02:35:35;;;;;;;20.00;17.90;;;17.70;99.90;;;;;;5012758;28;20493;-79
2021/09/28 02:38:02;;;;;;;21.50;18.57;;;17.70;99.90;;;;;;5012720;28;21035;-80
2021/09/28 02:40:29;;;;;;;23.93;18.97;;;17.70;99.90;;;;;;5021053;28;20540;-80
2021/09/28 02:42:55;;;;;;;19.63;17.63;;;17.70;99.90;;;;;;5032166;28;20504;-80
2021/09/28 02:45:22;;;;;;;19.80;17.20;;;17.70;99.90;;;;;;5032271;28;21075;-80
2021/09/28 02:47:50;;;;;;;19.17;16.73;;;17.80;99.90;;;;;;5032239;28;20528;-79
2021/09/28 02:50:17;;;;;;;16.93;15.33;;;17.80;99.90;;;;;;5032628;28;20481;-79
2021/09/28 02:52:43;;;;;;;18.20;16.30;;;17.80;99.90;;;;;;5034369;28;20552;-79
2021/09/28 02:55:10;;;;;;;17.47;15.67;;;17.80;99.90;;;;;;5036480;28;20552;-79
2021/09/28 02:57:37;;;;;;;17.40;15.60;;;17.80;99.90;;;;;;5036259;28;20462;-80
2021/09/28 03:00:06;;;;;;;17.13;15.40;;;17.80;99.90;;;;;;5036364;28;20456;-80
2021/09/28 03:02:32;;;;;;;17.87;15.97;;;17.80;99.90;;;;;;5036050;28;20524;-81
2021/09/28 03:05:00;;;;;;;16.30;14.70;;;17.90;99.90;;;;;;5036380;28;20548;-81
2021/09/28 03:07:27;;;;;;;14.37;12.93;;;17.90;99.90;;;;;;5036176;28;21039;-80
2021/09/28 03:09:56;;;;;;;16.77;15.07;;;17.90;99.90;;;;;;5036292;28;20484;-80
2021/09/28 03:12:23;;;;;;;15.00;13.50;;;17.90;99.90;;;;;;5035889;28;21059;-80
2021/09/28 03:14:49;;;;;;;14.07;12.70;;;18.00;99.90;;;;;;5036066;28;20536;-80
2021/09/28 03:17:16;;;;;;;14.80;12.93;;;17.90;99.90;;;;;;5035853;28;20548;-80
2021/09/28 03:19:42;;;;;;;13.50;12.20;;;18.00;99.90;;;;;;5036125;28;20535;-81
2021/09/28 03:22:10;;;;;;;13.30;12.00;;;18.00;99.90;;;;;;5035913;28;20484;-80
2021/09/28 03:24:37;;;;;;;14.47;12.97;;;17.90;99.90;;;;;;5036000;28;20481;-81
2021/09/28 03:27:04;;;;;;;12.80;11.50;;;17.90;99.90;;;;;;5035731;28;20484;-80
2021/09/28 03:29:31;;;;;;;13.10;11.90;;;18.00;99.90;;;;;;5035778;28;20532;-81
2021/09/28 03:31:57;;;;;;;15.00;13.50;;;17.90;99.90;;;;;;5035707;28;20559;-81
2021/09/28 03:34:24;;;;;;;14.90;12.37;;;17.90;99.90;;;;;;5035796;28;20544;-81
2021/09/28 03:36:50;;;;;;;13.60;12.30;;;17.90;99.90;;;;;;5035646;28;20472;-81
2021/09/28 03:39:18;;;;;;;14.40;12.27;;;17.90;99.90;;;;;;5035504;28;21023;-81
2021/09/28 03:41:45;;;;;;;13.13;11.90;;;17.90;99.90;;;;;;5035238;28;20499;-81
2021/09/28 03:44:12;;;;;;;14.27;11.20;;;17.90;99.90;;;;;;5035367;28;20574;-79
2021/09/28 03:46:38;;;;;;;12.87;10.90;;;17.90;99.90;;;;;;5035454;28;20485;-80
2021/09/28 03:49:05;;;;;;;12.63;11.27;;;17.90;99.90;;;;;;5035524;28;20480;-79
2021/09/28 03:51:31;;;;;;;14.70;11.23;;;17.90;99.90;;;;;;5035392;28;20543;-78
2021/09/28 03:53:58;;;;;;;11.90;10.90;;;17.90;99.90;;;;;;5035318;28;20488;-78
2021/09/28 03:56:26;;;;;;;11.77;10.57;;;17.90;99.90;;;;;;5035219;28;20481;-77
2021/09/28 03:58:52;;;;;;;11.13;10.03;;;17.90;99.90;;;;;;5035069;28;20870;-79
2021/09/28 04:01:19;;;;;;;11.50;10.50;;;18.00;99.90;;;;;;5035455;28;20454;-77
2021/09/28 04:03:46;;;;;;;10.30;8.83;;;18.00;99.90;;;;;;5034907;28;20983;-78
2021/09/28 04:06:12;;;;;;;10.47;9.50;;;18.00;99.90;;;;;;5035233;28;20548;-78
2021/09/28 04:08:39;;;;;;;9.57;8.67;;;18.10;99.90;;;;;;5034998;28;20481;-79
2021/09/28 04:11:06;;;;;;;10.57;9.67;;;18.00;99.90;;;;;;5034869;28;20545;-77
2021/09/28 04:13:34;;;;;;;9.40;8.60;;;18.00;99.90;;;;;;5035046;28;20461;-78
2021/09/28 04:16:04;;;;;;;9.70;8.80;;;18.00;99.90;;;;;;5026418;28;20450;-78
2021/09/28 04:18:31;;;;;;;9.87;8.93;;;18.00;99.90;;;;;;5014963;28;20458;-77
2021/09/28 04:20:58;;;;;;;9.90;9.00;;;18.00;99.90;;;;;;5015139;28;20541;-79
2021/09/28 04:23:25;;;;;;;10.57;8.93;;;17.90;99.90;;;;;;5014740;28;20489;-77
2021/09/28 04:25:51;;;;;;;10.33;9.43;;;18.00;99.90;;;;;;5014866;28;20486;-78
2021/09/28 04:28:18;;;;;;;8.80;7.90;;;18.00;99.90;;;;;;5014889;28;20454;-76
2021/09/28 04:30:46;;;;;;;8.93;8.13;;;18.00;99.90;;;;;;5014785;28;20489;-77
2021/09/28 04:33:12;;;;;;;9.73;8.73;;;18.00;99.90;;;;;;5014808;28;20454;-77
2021/09/28 04:35:39;;;;;;;9.50;8.50;;;18.00;99.90;;;;;;5014803;28;20553;-79
2021/09/28 04:38:05;;;;;;;8.30;7.60;;;17.90;99.90;;;;;;5014562;28;20486;-81
2021/09/28 04:40:32;;;;;;;8.73;7.83;;;17.90;99.90;;;;;;5023138;28;20665;-78
2021/09/28 04:42:59;;;;;;;7.67;6.97;;;17.80;99.90;;;;;;5034170;28;20568;-78
2021/09/28 04:45:25;;;;;;;7.10;6.50;;;17.80;99.90;;;;;;5034206;28;20568;-79
2021/09/28 04:47:53;;;;;;;8.17;7.40;;;17.80;99.90;;;;;;5034162;28;20524;-78
2021/09/28 04:50:20;;;;;;;7.27;6.67;;;17.70;99.90;;;;;;5034248;28;20481;-77
2021/09/28 04:52:46;;;;;;;6.90;6.37;;;17.70;99.90;;;;;;5033926;28;20507;-78
2021/09/28 04:55:13;;;;;;;7.83;6.43;;;17.80;99.90;;;;;;5034073;28;20536;-77
2021/09/28 04:57:40;;;;;;;9.40;8.50;;;17.80;99.90;;;;;;5034082;28;20955;-78
2021/09/28 05:00:10;;;;;;;9.30;6.20;;;17.80;99.90;;;;;;5034217;28;20485;-77
2021/09/28 05:02:37;;;;;;;8.90;6.20;;;17.80;99.90;;;;;;5020390;28;20983;-78
2021/09/28 05:05:05;;;;;;;7.93;6.10;;;17.80;99.90;;;;;;5014198;28;20541;-78
2021/09/28 05:07:32;;;;;;;7.13;6.53;;;17.80;99.90;;;;;;5013802;28;20454;-77
2021/09/28 05:09:59;;;;;;;5.50;5.10;;;17.80;99.90;;;;;;5013916;28;20529;-81
2021/09/28 05:12:25;;;;;;;5.43;4.90;;;17.80;99.90;;;;;;5013858;28;20953;-79
2021/09/28 05:14:52;;;;;;;5.43;4.93;;;17.80;99.90;;;;;;5013762;28;20489;-78
2021/09/28 05:17:18;;;;;;;4.70;4.30;;;17.70;99.90;;;;;;5013923;28;20964;-79
2021/09/28 05:19:45;;;;;;;6.73;4.07;;;17.70;99.90;;;;;;5013783;28;20536;-78
2021/09/28 05:22:13;;;;;;;6.90;3.53;;;17.70;99.90;;;;;;5013678;28;20529;-79
2021/09/28 05:24:39;;;;;;;4.77;3.90;;;17.70;99.90;;;;;;5013877;28;20508;-79
2021/09/28 05:27:06;;;;;;;7.10;3.93;;;17.70;99.90;;;;;;5013820;28;20549;-79
2021/09/28 05:29:34;;;;;;;4.63;3.93;;;17.70;99.90;;;;;;5013999;28;20478;-80
2021/09/28 05:32:00;;;;;;;4.33;3.10;;;17.60;99.90;;;;;;5014312;28;20504;-79
2021/09/28 05:34:27;;;;;;;7.33;3.23;;;17.60;99.90;;;;;;5033032;28;20543;-79
2021/09/28 05:36:55;;;;;;;5.10;3.20;;;17.60;99.90;;;;;;5032431;28;20524;-79
2021/09/28 05:39:23;;;;;;;3.40;2.93;;;17.60;99.90;;;;;;5032991;28;20449;-78
2021/09/28 05:41:49;;;;;;;3.47;2.60;;;17.60;99.90;;;;;;5032970;28;20532;-78
2021/09/28 05:44:16;;;;;;;5.77;2.10;;;17.60;99.90;;;;;;5032655;28;20481;-78
2021/09/28 05:46:42;;;;;;;4.00;2.07;;;17.70;99.90;;;;;;5032810;28;20609;-78
2021/09/28 05:49:09;;;;;;;5.27;1.70;;;17.60;99.90;;;;;;5029931;28;20553;-78
2021/09/28 05:51:37;;;;;;;3.20;2.83;;;17.70;99.90;;;;;;5032893;28;20561;-78
2021/09/28 05:54:06;;;;;;;4.03;2.00;;;17.80;99.90;;;;;;5032714;28;20453;-77
2021/09/28 05:56:34;;;;;;;1.93;1.70;;;17.80;99.90;;;;;;5030568;28;20447;-78
2021/09/28 05:59:01;;;;;;;2.77;1.90;;;17.80;99.90;;;;;;5032499;28;20452;-79
2021/09/28 06:01:27;;;;;;;2.27;1.60;;;17.80;99.90;;;;;;5032511;28;20527;-78
2021/09/28 06:03:54;;;;;;;2.23;1.80;;;17.90;99.90;;;;;;5032309;28;20516;-79
2021/09/28 06:06:26;;;;;;;3.50;1.80;;;17.90;99.90;;;;;;5032572;28;20477;-79
2021/09/28 06:08:53;;;;;;;2.10;2.00;;;18.00;99.90;;;;;;5032606;28;20451;-79
2021/09/28 06:11:20;;;;;;;5.10;1.77;;;18.00;99.90;;;;;;5032630;28;20525;-78
2021/09/28 06:13:47;;;;;;;3.27;1.50;;;18.00;99.90;;;;;;5029782;28;20473;-78
2021/09/28 06:16:14;;;;;;;4.10;3.03;;;18.00;99.90;;;;;;5032484;28;20437;-77
2021/09/28 06:18:41;;;;;;;2.80;1.43;;;18.00;99.90;;;;;;5032349;28;20536;-78
2021/09/28 06:21:07;;;;;;;4.83;1.80;;;18.00;99.90;;;;;;5032482;28;20492;-78
2021/09/28 06:23:36;;;;;;;4.73;2.13;;;18.10;99.90;;;;;;5032309;28;20587;-78
2021/09/28 06:26:03;;;;;;;2.03;1.30;;;18.10;99.90;;;;;;5032056;28;20873;-78
2021/09/28 06:28:30;;;;;;;2.63;1.90;;;18.10;99.90;;;;;;5031762;28;20810;-78
2021/09/28 06:30:58;;;;;;;4.93;1.63;;;18.00;99.90;;;;;;5032565;28;20608;-78
2021/09/28 06:33:25;;;;;;;2.63;2.30;;;18.00;99.90;;;;;;5032588;28;20503;-77
2021/09/28 06:35:51;;;;;;;3.20;1.80;;;18.10;99.90;;;;;;5032691;28;20480;-77
2021/09/28 06:38:18;;;;;;;4.17;1.80;;;18.00;99.90;;;;;;5032656;28;20540;-77
2021/09/28 06:40:44;;;;;;;2.37;1.60;;;18.10;99.90;;;;;;5032219;28;20481;-77
2021/09/28 06:43:11;;;;;;;3.93;1.63;;;18.10;99.90;;;;;;5032388;28;20514;-77
2021/09/28 06:45:38;;;;;;;5.07;2.07;;;18.10;99.90;;;;;;5032264;28;20564;-77
2021/09/28 06:48:06;;;;;;;7.13;2.13;;;18.20;99.90;;;;;;5032666;28;20543;-77
2021/09/28 06:50:32;;;;;;;4.30;1.90;;;18.20;99.90;;;;;;5032512;28;20484;-77
2021/09/28 06:52:59;;;;;;;2.63;1.50;;;18.10;99.90;;;;;;5032460;28;20559;-77
2021/09/28 06:55:26;;;;;;;3.90;2.00;;;18.10;99.90;;;;;;5032294;28;20813;-77
2021/09/28 06:57:52;;;;;;;7.50;1.80;;;18.10;99.90;;;;;;5032505;28;20967;-77
2021/09/28 07:00:19;;;;;;;4.20;3.23;;;18.20;99.90;;;;;;5032464;28;20492;-78
2021/09/28 07:02:45;;;;;;;3.70;1.93;;;18.20;99.90;;;;;;5030401;28;20473;-78
2021/09/28 07:05:14;;;;;;;2.57;1.43;;;18.20;99.90;;;;;;5032325;28;20484;-78
2021/09/28 07:07:41;;;;;;;7.40;2.10;;;18.20;99.90;;;;;;5032311;28;20449;-78
2021/09/28 07:10:09;;;;;;;3.53;1.93;;;18.20;99.90;;;;;;5032233;28;20503;-78
2021/09/28 07:12:36;;;;;;;5.20;1.80;;;18.20;99.90;;;;;;5032140;28;20477;-78
2021/09/28 07:15:03;;;;;;;2.13;1.70;;;18.20;99.90;;;;;;5032278;28;20460;-78
2021/09/28 07:17:30;;;;;;;4.73;2.10;;;18.20;99.90;;;;;;5032350;28;20483;-78
2021/09/28 07:19:57;;;;;;;3.20;1.40;;;18.20;99.90;;;;;;5032031;28;20883;-78
2021/09/28 07:22:26;;;;;;;2.57;1.20;;;18.00;99.90;;;;;;5032065;28;21023;-77
2021/09/28 07:24:53;;;;;;;7.60;1.77;;;18.00;99.90;;;;;;5031978;28;20488;-78
2021/09/28 07:27:20;;;;;;;6.87;1.80;;;18.00;99.90;;;;;;5032091;28;20453;-78
2021/09/28 07:29:46;;;;;;;2.53;1.27;;;18.10;99.90;;;;;;5032160;28;20477;-77
2021/09/28 07:32:14;;;;;;;4.13;1.77;;;18.10;99.90;;;;;;5032082;28;20549;-78
2021/09/28 07:34:41;;;;;;;5.80;1.70;;;18.10;99.90;;;;;;5032253;28;20460;-78
2021/09/28 07:37:07;;;;;;;4.03;1.90;;;18.10;99.90;;;;;;5032254;28;20485;-78
2021/09/28 07:39:36;;;;;;;3.73;1.60;;;18.10;99.90;;;;;;5034957;28;20503;-78
2021/09/28 07:42:02;;;;;;;3.87;1.80;;;18.10;99.90;;;;;;5035052;28;20445;-78
2021/09/28 07:44:29;;;;;;;2.63;1.30;;;18.10;99.90;;;;;;5034604;28;20520;-78
2021/09/28 07:46:55;;;;;;;6.63;2.10;;;18.00;99.90;;;;;;5035651;28;20540;-78
2021/09/28 07:49:22;;;;;;;8.77;1.87;;;18.00;99.90;;;;;;5035332;28;20481;-78
2021/09/28 07:51:48;;;;;;;4.77;1.60;;;18.00;99.90;;;;;;5035484;28;20864;-78
2021/09/28 07:54:15;;;;;;;10.57;2.00;;;18.00;99.90;;;;;;5035361;28;20563;-78
2021/09/28 07:56:43;;;;;;;3.50;1.80;;;18.00;99.90;;;;;;5035439;28;20453;-79
2021/09/28 07:59:10;;;;;;;4.00;1.77;;;18.00;99.90;;;;;;5034830;28;20460;-78
2021/09/28 08:01:37;;;;;;;2.87;1.40;;;18.00;99.90;;;;;;5034710;28;20445;-77
2021/09/28 08:04:03;;;;;;;3.90;1.70;;;18.10;99.90;;;;;;5032001;28;20565;-78
2021/09/28 08:06:30;;;;;;;5.90;1.83;;;18.00;99.90;;;;;;5034419;28;20469;-78
2021/09/28 08:08:57;;;;;;;2.90;1.53;;;18.10;99.90;;;;;;5034750;28;20512;-80
2021/09/28 08:11:24;;;;;;;3.50;1.70;;;18.10;99.90;;;;;;5035113;28;20537;-79
2021/09/28 08:13:51;;;;;;;5.23;2.27;;;18.10;99.90;;;;;;5035063;28;20483;-77
2021/09/28 08:16:18;;;;;;;7.40;2.13;;;18.20;99.90;;;;;;5027697;28;20485;-78
2021/09/28 08:18:44;;;;;;;6.53;2.60;;;18.20;99.90;;;;;;5030847;28;20485;-77
2021/09/28 08:21:11;;;;;;;4.53;1.87;;;18.30;99.90;;;;;;5033784;28;20536;-78
2021/09/28 08:23:37;;;;;;;4.47;2.00;;;18.30;99.90;;;;;;5033420;28;20556;-77
2021/09/28 08:31:30;;;;;;;4.40;1.70;;;18.40;99.90;;;;;;5019924;28;20432;-77
2021/09/28 08:33:57;;;;;;;2.33;1.50;;;18.40;99.90;;;;;;5033828;28;20458;-78
2021/09/28 08:36:23;;;;;;;2.03;1.67;;;18.30;99.90;;;;;;5033705;28;20548;-77
2021/09/28 08:38:50;;;;;;;12.97;2.30;;;18.20;99.90;;;;;;5033916;28;21011;-78
2021/09/28 08:41:16;;;;;;;3.17;2.50;;;18.10;99.90;;;;;;5033842;28;20474;-76
2021/09/28 08:43:43;;;;;;;5.40;1.83;;;18.00;99.90;;;;;;5033539;28;20999;-77
2021/09/28 08:46:09;;;;;;;4.80;1.50;;;17.90;99.90;;;;;;5033432;28;20894;-77
2021/09/28 08:48:37;;;;;;;3.90;1.53;;;17.80;99.90;;;;;;5033792;28;20503;-77
2021/09/28 08:51:04;;;;;;;7.83;1.73;;;17.70;99.90;;;;;;5032580;28;20464;-78
2021/09/28 08:53:30;;;;;;;5.17;1.90;;;17.60;99.90;;;;;;5033654;28;20544;-77
2021/09/28 08:55:57;;;;;;;5.23;1.80;;;17.50;99.90;;;;;;5033531;28;20473;-76
2021/09/28 08:58:27;;;;;;;4.90;1.93;;;17.50;99.90;;;;;;5031911;28;20986;-77
2021/09/28 09:01:04;;;;;;;3.57;1.83;;;17.50;99.90;;;;;;5032864;28;20532;-77
2021/09/28 09:03:32;;;;;;;4.67;1.90;;;17.60;99.90;;;;;;5019420;28;20527;-77
2021/09/28 09:06:02;;;;;;;3.90;2.00;;;17.60;99.90;;;;;;5033273;28;21008;-77
2021/09/28 09:08:31;;;;;;;5.00;3.87;;;17.70;99.90;;;;;;5027154;28;21007;-77
2021/09/28 09:11:05;;;;;;;9.27;2.40;;;17.60;99.90;;;;;;5032820;28;20997;-77
2021/09/28 09:13:34;;;;;;;6.90;1.90;;;17.60;99.90;;;;;;5019422;28;20487;-77
2021/09/28 09:16:01;;;;;;;2.67;2.27;;;17.50;99.90;;;;;;5033091;28;20446;-77
2021/09/28 09:18:27;;;;;;;3.40;1.77;;;17.50;99.90;;;;;;5015142;28;20528;-77
2021/09/28 09:20:58;;;;;;;5.37;2.00;;;17.60;99.90;;;;;;5032926;28;20454;-77
2021/09/28 09:23:28;;;;;;;6.70;2.30;;;17.60;99.90;;;;;;5032775;28;20484;-77
2021/09/28 09:26:13;;;;;;;3.60;2.00;;;17.40;99.90;;;;;;5032819;28;20515;-77
2021/09/28 09:28:43;;;;;;;5.53;2.50;;;17.30;99.90;;;;;;5032909;28;20473;-77
2021/09/28 09:31:21;;;;;;;3.60;2.37;;;17.20;99.90;;;;;;5032648;28;20998;-77
2021/09/28 09:33:48;;;;;;;10.27;3.77;;;17.10;99.90;;;;;;5032753;28;20453;-77
2021/09/28 09:36:17;;;;;;;10.67;8.50;;;17.20;99.90;;;;;;5032437;28;20477;-77
2021/09/28 09:38:48;;;;;;;5.27;2.27;;;17.30;99.90;;;;;;5032476;28;20524;-77
2021/09/28 09:41:15;;;;;;;5.90;3.53;;;17.50;99.90;;;;;;5030664;28;20483;-77
2021/09/28 09:43:43;;;;;;;8.97;7.10;;;17.60;99.90;;;;;;5032590;28;20518;-77
2021/09/28 09:46:15;;;;;;;7.53;1.80;;;17.70;99.90;;;;;;5032182;28;20538;-77
2021/09/28 09:48:43;;;;;;;6.10;1.80;;;17.80;99.90;;;;;;5014529;28;20464;-77
2021/09/28 09:51:12;;;;;;;7.60;2.47;;;17.80;99.90;;;;;;5032403;28;20452;-77
2021/09/28 09:53:52;;;;;;;6.07;1.90;;;18.00;99.90;;;;;;5032728;28;20532;-77
2021/09/28 09:56:19;;;;;;;3.67;1.73;;;18.10;99.90;;;;;;5032197;28;20567;-77
2021/09/28 09:58:46;;;;;;;3.63;1.83;;;18.10;99.90;;;;;;5032373;28;20481;-76
2021/09/28 10:01:13;;;;;;;3.80;1.57;;;18.30;99.90;;;;;;5029788;28;20987;-77
2021/09/28 10:03:40;;;;;;;3.40;2.10;;;18.40;99.90;;;;;;5031871;28;21074;-77
2021/09/28 10:06:07;;;;;;;3.60;1.83;;;18.60;99.90;;;;;;5032356;28;20446;-76
2021/09/28 10:08:35;;;;;;;5.63;2.37;;;18.70;99.90;;;;;;5032251;28;20511;-77
2021/09/28 10:11:03;;;;;;;3.73;1.87;;;18.90;99.90;;;;;;5032212;28;20507;-77
2021/09/28 10:13:54;;;;;;;3.37;1.90;;;19.00;99.90;;;;;;5018153;28;20485;-77
2021/09/28 10:16:38;;;;;;;5.37;2.10;;;19.00;99.90;;;;;;5017239;28;20485;-78
2021/09/28 10:19:26;;;;;;;4.30;2.57;;;19.00;99.90;;;;;;5032136;28;20500;-77
2021/09/28 10:21:55;;;;;;;4.60;2.27;;;18.90;99.90;;;;;;5032172;28;20449;-78
2021/09/28 10:24:29;;;;;;;6.13;3.20;;;18.90;99.90;;;;;;5013994;28;20480;-78
2021/09/28 10:27:31;;;;;;;4.63;2.23;;;19.00;99.90;;;;;;5032082;28;20857;-78
2021/09/28 10:29:58;;;;;;;7.37;2.10;;;19.00;99.90;;;;;;5018484;28;20456;-78
2021/09/28 10:32:47;;;;;;;6.73;2.13;;;18.90;99.90;;;;;;5031636;28;20840;-78
2021/09/28 10:35:17;;;;;;;3.70;2.37;;;18.80;99.90;;;;;;5030177;28;20548;-78
2021/09/28 10:37:55;;;;;;;5.60;2.53;;;18.80;99.90;;;;;;5031753;28;21092;-77
2021/09/28 10:40:47;;;;;;;4.07;2.37;;;18.90;99.90;;;;;;5032172;28;20511;-77
2021/09/28 10:43:29;;;;;;;5.43;2.50;;;19.10;99.90;;;;;;5029642;28;20938;-77
2021/09/28 10:45:57;;;;;;;5.20;2.90;;;19.10;99.90;;;;;;5031746;28;20511;-79
2021/09/28 10:48:34;;;;;;;6.10;2.40;;;19.10;99.90;;;;;;5031623;28;20472;-79
2021/09/28 10:51:10;;;;;;;2.80;2.47;;;19.10;99.90;;;;;;5031703;28;20967;-79
2021/09/28 10:53:39;;;;;;;7.30;3.47;;;19.20;99.90;;;;;;5018928;28;20449;-78
2021/09/28 10:56:07;;;;;;;7.00;2.93;;;19.30;99.90;;;;;;5032084;28;20442;-78
2021/09/28 10:58:51;;;;;;;3.73;2.50;;;19.50;99.90;;;;;;5031858;28;20511;-78
2021/09/28 11:01:18;;;;;;;5.70;2.97;;;19.60;99.90;;;;;;5030512;28;20520;-78
2021/09/28 11:03:56;;;;;;;3.57;2.30;;;19.70;99.90;;;;;;5031370;28;20446;-78
2021/09/28 11:06:46;;;;;;;6.93;3.87;;;19.80;99.90;;;;;;5031936;28;20544;-80
2021/09/28 11:09:15;;;;;;;6.00;4.00;;;19.70;99.90;;;;;;5029430;28;20485;-80
2021/09/28 11:11:41;;;;;;;6.17;2.37;;;19.70;99.90;;;;;;5031864;28;20531;-81
2021/09/28 11:14:11;;;;;;;12.90;2.77;;;19.80;99.90;;;;;;5034108;28;20481;-79
2021/09/28 11:16:42;;;;;;;4.47;2.33;;;19.80;99.90;;;;;;5035330;28;20484;-79
2021/09/28 11:19:10;;;;;;;6.13;2.50;;;19.70;99.90;;;;;;5035690;28;20979;-80
2021/09/28 11:21:40;;;;;;;12.23;2.73;;;19.70;99.90;;;;;;5035543;28;20491;-79
2021/09/28 11:24:07;;;;;;;6.00;2.20;;;19.60;99.90;;;;;;5035328;28;20509;-79
2021/09/28 11:26:38;;;;;;;4.33;2.40;;;19.70;99.90;;;;;;5035112;28;20476;-79
2021/09/28 11:29:06;;;;;;;5.00;1.97;;;19.80;99.90;;;;;;5035369;28;20461;-79
2021/09/28 11:31:33;;;;;;;2.63;1.97;;;20.00;99.90;;;;;;5035376;28;20503;-79
2021/09/28 11:34:00;;;;;;;5.10;1.90;;;20.20;99.90;;;;;;5035271;28;20454;-79
2021/09/28 11:36:32;;;;;;;5.30;2.30;;;20.20;99.90;;;;;;5034862;28;21011;-79
2021/09/28 11:38:59;;;;;;;3.83;2.77;;;20.20;99.90;;;;;;5035036;28;20449;-79
2021/09/28 11:41:26;;;;;;;4.43;2.80;;;20.20;99.90;;;;;;5034712;28;20531;-80
2021/09/28 11:43:55;;;;;;;5.73;2.10;;;20.20;99.90;;;;;;5034760;28;20845;-80
2021/09/28 11:46:24;;;;;;;3.20;2.30;;;20.10;99.90;;;;;;5034938;28;20449;-80
2021/09/28 11:48:56;;;;;;;3.83;2.47;;;20.20;99.90;;;;;;5034877;28;20679;-80
2021/09/28 11:51:25;;;;;;;3.70;2.50;;;20.30;99.90;;;;;;5034848;28;20453;-80
2021/09/28 11:53:53;;;;;;;4.43;3.17;;;20.50;99.90;;;;;;5034847;28;20932;-80
2021/09/28 11:56:21;;;;;;;4.30;2.03;;;20.80;99.90;;;;;;5034831;28;20445;-80
2021/09/28 11:58:49;;;;;;;5.20;1.67;;;20.90;99.90;;;;;;5034845;28;20496;-80
2021/09/28 12:01:19;;;;;;;6.00;1.87;;;20.80;99.90;;;;;;5034686;28;20536;-80
2021/09/28 12:04:09;;;;;;;2.30;1.73;;;20.90;99.90;;;;;;5034531;28;20449;-79
2021/09/28 12:06:48;;;;;;;3.33;2.03;;;20.90;99.90;;;;;;5034638;28;20441;-80
2021/09/28 12:09:15;;;;;;;4.90;2.20;;;20.90;99.90;;;;;;5032362;28;20761;-79
2021/09/28 12:11:59;;;;;;;3.73;1.83;;;20.90;99.90;;;;;;5034327;28;20445;-80
2021/09/28 12:14:34;;;;;;;4.97;1.80;;;20.90;99.90;;;;;;5034299;28;20457;-80
2021/09/28 12:17:11;;;;;;;4.63;2.03;;;20.90;99.90;;;;;;5033299;28;20444;-80
2021/09/28 12:19:37;;;;;;;5.70;2.80;;;20.80;99.90;;;;;;5021625;28;20485;-80
2021/09/28 12:22:05;;;;;;;5.67;2.47;;;20.90;99.90;;;;;;5034383;28;20449;-80
2021/09/28 12:24:42;;;;;;;8.97;2.10;;;21.00;99.90;;;;;;5032493;28;21073;-80
2021/09/28 12:27:09;;;;;;;3.53;2.27;;;21.10;99.90;;;;;;5034395;28;20535;-81
2021/09/28 12:29:41;;;;;;;6.23;2.27;;;21.20;99.90;;;;;;5034101;28;20500;-80
2021/09/28 12:32:09;;;;;;;6.30;2.57;;;21.20;99.90;;;;;;5034366;28;20449;-81
2021/09/28 12:34:54;;;;;;;6.03;2.23;;;21.10;99.90;;;;;;5033860;28;20915;-81
2021/09/28 12:37:22;;;;;;;5.60;2.80;;;21.10;99.90;;;;;;5032905;28;20499;-80
2021/09/28 12:40:04;;;;;;;12.37;2.40;;;21.10;99.90;;;;;;5033734;28;20488;-79
2021/09/28 12:42:31;;;;;;;5.87;1.80;;;21.20;99.90;;;;;;5033855;28;20464;-79
2021/09/28 12:44:59;;;;;;;5.47;2.30;;;21.30;99.90;;;;;;5033648;28;20504;-79
2021/09/28 12:47:39;;;;;;;6.17;2.27;;;21.40;99.90;;;;;;5033642;28;20449;-80
2021/09/28 12:50:18;;;;;;;6.13;2.20;;;21.40;99.90;;;;;;5033676;28;20869;-81
2021/09/28 12:52:45;;;;;;;7.30;2.10;;;21.50;99.90;;;;;;5033931;28;20852;-80